SKBO/BOG METAR and TAF weather

Enter ICAO airport designator
Station Type Date Time Source
SKBO METAR 2019/12/10 03:00 UTC NOAA

SKBO 100300Z 36003KT 9999 SCT020 SCT200 11/09 A3031 NOSIG


Station Type Date Time Source
SKBO Decoded METAR 2019/12/10 03:00 UTC NOAA

Bogota / Eldorado, Colombia (SKBO) 04-43N 074-09W 2548M
Dec 09, 2019 - 10:00 PM EST / 2019.12.10 0300 UTC
Wind: from the N (360 degrees) at 3 MPH (3 KT):0
Visibility: greater than 7 mile(s):0
Sky conditions: partly cloudy
Temperature: 51 F (11 C)
Dew Point: 48 F (9 C)
Relative Humidity: 87%
Pressure (altimeter): 30.31 in. Hg (1026 hPa)
ob: SKBO 100300Z 36003KT 9999 SCT020 SCT200 11/09 A3031 NOSIG
cycle: 3

Station Type Date Time Source
SKBO TAF 2019/12/09 18:50 UTC NOAA

TAF SKBO 091630Z 0918/1018 28010KT 9999 SCT023
TEMPO 0920/0922 5000 TSRA SCT017CB
BECMG 0923/1001 VRB02KT
TEMPO 1008/1013 4000 BR SCT015 PROB40 1010/1012 0400 FG VV/// TX21/0918Z TN08/1011Z

Example: see airport list